Time;durP1;ratioP1;P1;durP2;ratioP2;P2;SDS_P1;SDS_P2;PMS_P1;PMS_P2;Temp;Humidity;BMP_temperature;BMP_pressure;BME280_temperature;BME280_humidity;BME280_pressure;Samples;Min_cycle;Max_cycle;Signal;HPM_P1;HPM_P2
2023/05/14 00:00:46;;;;;;;23.67;17.98;;;;;;;;;;4979681;28;20491;-63
2023/05/14 00:03:11;;;;;;;25.35;18.15;;;;;;;;;;4969336;28;20053;-63
2023/05/14 00:05:36;;;;;;;22.95;18.75;;;;;;;;;;4982319;28;20042;-63
2023/05/14 00:08:02;;;;;;;26.33;18.67;;;;;;;;;;4979403;28;20042;-63
2023/05/14 00:10:27;;;;;;;24.65;18.77;;;;;;;;;;4978994;28;20141;-63
2023/05/14 00:12:53;;;;;;;23.02;18.58;;;;;;;;;;4980814;28;20305;-63
2023/05/14 00:15:18;;;;;;;23.02;18.67;;;;;;;;;;4978795;28;20386;-63
2023/05/14 00:17:44;;;;;;;25.60;19.35;;;;;;;;;;4982219;28;20054;-62
2023/05/14 00:20:11;;;;;;;22.67;17.40;;;;;;;;;;4978342;28;20038;-63
2023/05/14 00:22:37;;;;;;;23.75;18.27;;;;;;;;;;4979473;28;20363;-62
2023/05/14 00:25:02;;;;;;;23.08;18.73;;;;;;;;;;4980628;28;20041;-63
2023/05/14 00:27:27;;;;;;;21.17;16.60;;;;;;;;;;4980424;28;20592;-62
2023/05/14 00:29:53;;;;;;;25.95;19.45;;;;;;;;;;4980015;28;20040;-62
2023/05/14 00:32:18;;;;;;;24.52;18.98;;;;;;;;;;4982468;28;20271;-63
2023/05/14 00:34:44;;;;;;;23.70;18.10;;;;;;;;;;4979943;28;20030;-64
2023/05/14 00:37:09;;;;;;;22.67;17.25;;;;;;;;;;4980578;28;20057;-62
2023/05/14 00:39:35;;;;;;;23.50;18.35;;;;;;;;;;4980620;28;20066;-64
2023/05/14 00:42:00;;;;;;;25.65;17.92;;;;;;;;;;4979883;28;20419;-63
2023/05/14 00:44:26;;;;;;;22.27;17.02;;;;;;;;;;4977771;28;20053;-63
2023/05/14 00:46:52;;;;;;;22.50;18.23;;;;;;;;;;4981465;28;20034;-63
2023/05/14 00:49:17;;;;;;;24.60;17.02;;;;;;;;;;4981063;28;20541;-62
2023/05/14 00:51:45;;;;;;;22.38;16.95;;;;;;;;;;4983052;28;20096;-63
2023/05/14 00:54:12;;;;;;;24.30;17.23;;;;;;;;;;4983663;28;20038;-63
2023/05/14 00:56:38;;;;;;;23.23;16.25;;;;;;;;;;4984453;28;20037;-63
2023/05/14 00:59:04;;;;;;;21.23;17.83;;;;;;;;;;4998129;28;20034;-63
2023/05/14 01:01:30;;;;;;;26.58;17.27;;;;;;;;;;4983691;28;20038;-63
2023/05/14 01:03:56;;;;;;;22.23;15.93;;;;;;;;;;4986102;28;20107;-63
2023/05/14 01:06:27;;;;;;;21.05;16.65;;;;;;;;;;4983633;28;20034;-63
2023/05/14 01:09:11;;;;;;;24.10;17.23;;;;;;;;;;4984226;28;20037;-61
2023/05/14 01:11:51;;;;;;;22.15;16.40;;;;;;;;;;4989902;28;20137;-63
2023/05/14 01:14:20;;;;;;;20.88;16.15;;;;;;;;;;4981717;28;20038;-62
2023/05/14 01:16:47;;;;;;;21.17;16.50;;;;;;;;;;4983494;28;20031;-62
2023/05/14 01:19:20;;;;;;;22.20;18.70;;;;;;;;;;4981299;28;20039;-63
2023/05/14 01:21:45;;;;;;;21.58;17.30;;;;;;;;;;4984362;28;20054;-63
2023/05/14 01:24:11;;;;;;;29.33;16.88;;;;;;;;;;4980451;28;20034;-63
2023/05/14 01:26:36;;;;;;;22.83;17.05;;;;;;;;;;4986302;28;20103;-63
2023/05/14 01:29:05;;;;;;;23.75;17.65;;;;;;;;;;4984643;28;20037;-64
2023/05/14 01:31:33;;;;;;;20.73;17.35;;;;;;;;;;4973830;28;20101;-62
2023/05/14 01:33:59;;;;;;;24.13;17.08;;;;;;;;;;4982433;28;20037;-62
2023/05/14 01:36:26;;;;;;;27.50;17.92;;;;;;;;;;4984533;28;20034;-62
2023/05/14 01:38:52;;;;;;;21.33;17.05;;;;;;;;;;4983394;28;20108;-62
2023/05/14 01:41:18;;;;;;;25.25;17.63;;;;;;;;;;4984310;28;20484;-63
2023/05/14 01:43:44;;;;;;;27.55;17.90;;;;;;;;;;4988825;28;20338;-62
2023/05/14 01:46:09;;;;;;;24.60;17.33;;;;;;;;;;4971373;28;20485;-62
2023/05/14 01:48:36;;;;;;;23.13;17.77;;;;;;;;;;4985382;28;20501;-63
2023/05/14 01:51:02;;;;;;;25.55;18.15;;;;;;;;;;4996883;28;20065;-62
2023/05/14 01:53:28;;;;;;;23.77;17.35;;;;;;;;;;4982412;28;20149;-62
2023/05/14 01:55:53;;;;;;;23.30;16.27;;;;;;;;;;4981455;28;20101;-62
2023/05/14 01:58:18;;;;;;;21.40;17.38;;;;;;;;;;4982330;28;20482;-62
2023/05/14 02:00:44;;;;;;;23.38;17.25;;;;;;;;;;4970203;28;20031;-62
2023/05/14 02:03:09;;;;;;;21.48;17.20;;;;;;;;;;4984212;28;20044;-62
2023/05/14 02:05:35;;;;;;;26.08;18.33;;;;;;;;;;4979787;28;20047;-62
2023/05/14 02:08:00;;;;;;;23.45;16.98;;;;;;;;;;4986555;28;20121;-62
2023/05/14 02:10:26;;;;;;;23.58;17.85;;;;;;;;;;4982719;28;20038;-63
2023/05/14 02:12:51;;;;;;;22.08;17.55;;;;;;;;;;4981379;28;20122;-62
2023/05/14 02:15:17;;;;;;;22.60;17.58;;;;;;;;;;4983900;28;20395;-63
2023/05/14 02:17:42;;;;;;;24.13;18.55;;;;;;;;;;4983218;28;20446;-63
2023/05/14 02:20:09;;;;;;;25.45;17.95;;;;;;;;;;4982730;28;20504;-62
2023/05/14 02:22:35;;;;;;;22.73;17.17;;;;;;;;;;4971326;28;20109;-62
2023/05/14 02:25:00;;;;;;;22.90;16.98;;;;;;;;;;4984397;28;20039;-63
2023/05/14 02:27:26;;;;;;;21.33;16.80;;;;;;;;;;4970838;28;20059;-62
2023/05/14 02:29:51;;;;;;;20.58;15.30;;;;;;;;;;4984841;28;20041;-62
2023/05/14 02:32:17;;;;;;;21.98;15.80;;;;;;;;;;4981893;28;20081;-62
2023/05/14 02:34:42;;;;;;;20.63;15.70;;;;;;;;;;4983069;28;20916;-62
2023/05/14 02:37:08;;;;;;;18.02;14.50;;;;;;;;;;4978301;28;20039;-62
2023/05/14 02:39:34;;;;;;;22.75;16.77;;;;;;;;;;4977238;28;20037;-63
2023/05/14 02:41:59;;;;;;;19.38;14.77;;;;;;;;;;4982898;28;20385;-62
2023/05/14 02:44:25;;;;;;;16.80;13.75;;;;;;;;;;4981445;28;20129;-63
2023/05/14 02:46:50;;;;;;;19.90;13.77;;;;;;;;;;4981979;28;20129;-62
2023/05/14 02:49:16;;;;;;;20.95;15.23;;;;;;;;;;4981533;28;20049;-62
2023/05/14 02:51:42;;;;;;;20.17;15.48;;;;;;;;;;4982775;28;20039;-63
2023/05/14 02:54:07;;;;;;;19.45;14.77;;;;;;;;;;4979540;28;20469;-60
2023/05/14 02:56:33;;;;;;;18.42;13.73;;;;;;;;;;4981366;28;20039;-63
2023/05/14 02:58:59;;;;;;;19.17;13.73;;;;;;;;;;4980963;28;20596;-62
2023/05/14 03:01:24;;;;;;;19.05;15.38;;;;;;;;;;4981538;28;20117;-62
2023/05/14 03:03:50;;;;;;;19.90;14.30;;;;;;;;;;4984609;28;20040;-63
2023/05/14 03:06:15;;;;;;;17.25;14.13;;;;;;;;;;4980658;28;20051;-64
2023/05/14 03:08:41;;;;;;;21.88;15.05;;;;;;;;;;4985757;28;20038;-62
2023/05/14 03:11:06;;;;;;;19.95;16.02;;;;;;;;;;4980113;28;20042;-62
2023/05/14 03:13:32;;;;;;;19.10;13.88;;;;;;;;;;4967071;28;20045;-63
2023/05/14 03:15:57;;;;;;;17.70;13.77;;;;;;;;;;4970000;28;20039;-62
2023/05/14 03:18:23;;;;;;;19.77;14.10;;;;;;;;;;4981341;28;20050;-63
2023/05/14 03:20:48;;;;;;;18.45;14.05;;;;;;;;;;4982663;28;20034;-62
2023/05/14 03:23:14;;;;;;;17.13;13.07;;;;;;;;;;4978576;28;20034;-62
2023/05/14 03:25:39;;;;;;;23.05;15.82;;;;;;;;;;4981552;28;20027;-62
2023/05/14 03:28:05;;;;;;;21.80;15.10;;;;;;;;;;4982576;28;20110;-62
2023/05/14 03:30:32;;;;;;;17.40;14.85;;;;;;;;;;4980177;28;20057;-63
2023/05/14 03:32:58;;;;;;;21.95;15.38;;;;;;;;;;4982258;28;20042;-63
2023/05/14 03:35:24;;;;;;;23.95;16.80;;;;;;;;;;4982402;28;20062;-63
2023/05/14 03:37:51;;;;;;;20.80;16.50;;;;;;;;;;4982131;28;20030;-63
2023/05/14 03:40:17;;;;;;;19.75;15.07;;;;;;;;;;4980197;28;20038;-63
2023/05/14 03:42:42;;;;;;;23.73;15.40;;;;;;;;;;4985251;28;20445;-62
2023/05/14 03:45:09;;;;;;;24.25;16.10;;;;;;;;;;4987181;28;20133;-62
2023/05/14 03:47:34;;;;;;;18.52;13.75;;;;;;;;;;4983144;28;20537;-62
2023/05/14 03:50:00;;;;;;;16.95;14.18;;;;;;;;;;4984896;28;20445;-63
2023/05/14 03:52:26;;;;;;;18.38;14.00;;;;;;;;;;4982468;28;20441;-63
2023/05/14 03:54:51;;;;;;;19.27;14.23;;;;;;;;;;4994522;28;20026;-64
2023/05/14 03:57:16;;;;;;;21.55;14.98;;;;;;;;;;4985356;28;20046;-64
2023/05/14 03:59:42;;;;;;;20.02;14.32;;;;;;;;;;4978963;28;20064;-63
2023/05/14 04:02:07;;;;;;;19.67;14.98;;;;;;;;;;4980740;28;20045;-63
2023/05/14 04:04:33;;;;;;;21.13;15.35;;;;;;;;;;4982437;28;20052;-63
2023/05/14 04:07:00;;;;;;;20.33;15.73;;;;;;;;;;4980590;28;20034;-63
2023/05/14 04:09:27;;;;;;;18.00;15.15;;;;;;;;;;4983528;28;20581;-63
2023/05/14 04:11:52;;;;;;;22.02;16.15;;;;;;;;;;4977261;28;20159;-63
2023/05/14 04:14:18;;;;;;;19.38;14.63;;;;;;;;;;4978487;28;20078;-63
2023/05/14 04:16:43;;;;;;;21.30;15.60;;;;;;;;;;4983520;28;20033;-64
2023/05/14 04:19:09;;;;;;;20.50;15.98;;;;;;;;;;4981115;28;20060;-64
2023/05/14 04:21:35;;;;;;;20.85;16.75;;;;;;;;;;4982353;28;20374;-63
2023/05/14 04:24:00;;;;;;;18.75;16.08;;;;;;;;;;4979705;28;20454;-64
2023/05/14 04:26:26;;;;;;;19.25;16.38;;;;;;;;;;4984518;28;20442;-63
2023/05/14 04:28:51;;;;;;;19.92;15.50;;;;;;;;;;4986498;28;20045;-63
2023/05/14 04:31:17;;;;;;;20.20;16.20;;;;;;;;;;4988001;28;20037;-64
2023/05/14 04:33:42;;;;;;;19.63;15.57;;;;;;;;;;4972028;28;20116;-64
2023/05/14 04:36:07;;;;;;;21.10;15.82;;;;;;;;;;4986657;28;20034;-63
2023/05/14 04:38:33;;;;;;;18.73;15.63;;;;;;;;;;4987887;28;20029;-64
2023/05/14 04:40:59;;;;;;;20.10;15.52;;;;;;;;;;4986174;28;20066;-63
2023/05/14 04:43:24;;;;;;;20.90;15.10;;;;;;;;;;4986487;28;20406;-63
2023/05/14 04:45:51;;;;;;;22.58;16.45;;;;;;;;;;4986399;28;20477;-64
2023/05/14 04:48:16;;;;;;;17.35;14.05;;;;;;;;;;4985466;28;20077;-64
2023/05/14 04:50:43;;;;;;;20.35;15.93;;;;;;;;;;4987286;28;20114;-62
2023/05/14 04:53:08;;;;;;;18.65;15.18;;;;;;;;;;4985066;28;20038;-63
2023/05/14 04:55:34;;;;;;;20.30;16.00;;;;;;;;;;4986739;28;20035;-63
2023/05/14 04:57:59;;;;;;;18.42;14.80;;;;;;;;;;4984270;28;20423;-64
2023/05/14 05:00:25;;;;;;;18.83;14.02;;;;;;;;;;4984920;28;20122;-64
2023/05/14 05:02:51;;;;;;;16.33;14.02;;;;;;;;;;4988144;28;20607;-64
2023/05/14 05:05:16;;;;;;;20.02;14.50;;;;;;;;;;4984572;28;20587;-63
2023/05/14 05:07:42;;;;;;;18.20;14.10;;;;;;;;;;4989075;28;20034;-63
2023/05/14 05:10:07;;;;;;;17.67;14.23;;;;;;;;;;4986111;28;20124;-63
2023/05/14 05:12:34;;;;;;;18.08;14.75;;;;;;;;;;4975738;28;20505;-63
2023/05/14 05:14:59;;;;;;;21.42;15.75;;;;;;;;;;5000988;28;20585;-63
2023/05/14 05:17:25;;;;;;;25.25;17.70;;;;;;;;;;4985538;28;20443;-63
2023/05/14 05:19:50;;;;;;;18.13;14.63;;;;;;;;;;4987290;28;20054;-63
2023/05/14 05:22:16;;;;;;;18.90;15.35;;;;;;;;;;4986301;28;20140;-63
2023/05/14 05:24:41;;;;;;;17.83;14.50;;;;;;;;;;4986725;28;20501;-63
2023/05/14 05:27:06;;;;;;;18.42;14.18;;;;;;;;;;4986260;28;20042;-63
2023/05/14 05:29:32;;;;;;;18.25;14.70;;;;;;;;;;4987511;28;20386;-63
2023/05/14 05:31:57;;;;;;;18.35;14.20;;;;;;;;;;4985109;28;20109;-63
2023/05/14 05:34:23;;;;;;;14.65;13.07;;;;;;;;;;4985415;28;20038;-64
2023/05/14 05:36:48;;;;;;;15.05;13.52;;;;;;;;;;4986709;28;20374;-63
2023/05/14 05:39:14;;;;;;;18.33;13.77;;;;;;;;;;4983319;28;20498;-63
2023/05/14 05:41:39;;;;;;;15.27;12.65;;;;;;;;;;4983574;28;20078;-63
2023/05/14 05:44:05;;;;;;;15.00;12.45;;;;;;;;;;4984287;28;20119;-63
2023/05/14 05:46:30;;;;;;;16.67;13.40;;;;;;;;;;4982463;28;20113;-64
2023/05/14 05:48:59;;;;;;;16.33;13.57;;;;;;;;;;4981174;28;20453;-63
2023/05/14 05:51:24;;;;;;;17.10;13.25;;;;;;;;;;4985553;28;20033;-63
2023/05/14 05:53:50;;;;;;;14.38;11.75;;;;;;;;;;4985480;28;20037;-64
2023/05/14 05:56:15;;;;;;;16.45;13.27;;;;;;;;;;4982571;28;20149;-62
2023/05/14 05:58:41;;;;;;;16.55;13.00;;;;;;;;;;4979360;28;20122;-63
2023/05/14 06:01:06;;;;;;;15.18;13.20;;;;;;;;;;4981975;28;20587;-63
2023/05/14 06:03:31;;;;;;;13.88;11.20;;;;;;;;;;4967935;28;20524;-61
2023/05/14 06:05:57;;;;;;;16.30;12.02;;;;;;;;;;4983580;28;20133;-61
2023/05/14 06:08:22;;;;;;;14.60;11.32;;;;;;;;;;4981805;28;20052;-62
2023/05/14 06:10:48;;;;;;;11.50;10.30;;;;;;;;;;4994928;28;20450;-62
2023/05/14 06:13:13;;;;;;;15.07;12.35;;;;;;;;;;4982455;28;20034;-62
2023/05/14 06:15:39;;;;;;;13.48;10.70;;;;;;;;;;4985306;28;20041;-62
2023/05/14 06:18:04;;;;;;;12.00;9.98;;;;;;;;;;4981178;28;20065;-62
2023/05/14 06:20:29;;;;;;;12.02;9.85;;;;;;;;;;4980194;28;20142;-62
2023/05/14 06:22:55;;;;;;;17.50;11.75;;;;;;;;;;4979228;28;20607;-62
2023/05/14 06:25:20;;;;;;;12.05;10.82;;;;;;;;;;4980349;28;20046;-61
2023/05/14 06:27:46;;;;;;;15.02;11.18;;;;;;;;;;4983019;28;20494;-62
2023/05/14 06:30:12;;;;;;;13.85;10.23;;;;;;;;;;4982417;28;20601;-63
2023/05/14 06:32:37;;;;;;;14.90;11.07;;;;;;;;;;4979921;28;20038;-62
2023/05/14 06:35:03;;;;;;;13.98;10.85;;;;;;;;;;4979428;28;20514;-63
2023/05/14 06:37:28;;;;;;;12.90;10.90;;;;;;;;;;4982600;28;20581;-63
2023/05/14 06:39:54;;;;;;;12.98;11.35;;;;;;;;;;4976712;28;20658;-63
2023/05/14 06:42:19;;;;;;;12.70;10.98;;;;;;;;;;4983502;28;20046;-61
2023/05/14 06:44:46;;;;;;;11.55;10.00;;;;;;;;;;4980051;28;20042;-61
2023/05/14 06:47:11;;;;;;;13.20;11.45;;;;;;;;;;4982933;28;20513;-62
2023/05/14 06:49:37;;;;;;;15.63;12.43;;;;;;;;;;4980276;28;20155;-64
2023/05/14 06:52:02;;;;;;;15.05;12.68;;;;;;;;;;4980023;28;20037;-61
2023/05/14 06:54:28;;;;;;;15.73;12.85;;;;;;;;;;4984684;28;20247;-61
2023/05/14 06:56:54;;;;;;;16.50;12.20;;;;;;;;;;4980927;28;20040;-61
2023/05/14 06:59:19;;;;;;;17.13;13.85;;;;;;;;;;4982682;28;20066;-61
2023/05/14 07:01:45;;;;;;;12.23;10.85;;;;;;;;;;4981297;28;20442;-62
2023/05/14 07:04:10;;;;;;;13.48;10.57;;;;;;;;;;4979793;28;20386;-61
2023/05/14 07:06:36;;;;;;;14.32;11.30;;;;;;;;;;4980624;28;20038;-61
2023/05/14 07:09:01;;;;;;;12.65;11.35;;;;;;;;;;4981115;28;20490;-61
2023/05/14 07:11:26;;;;;;;10.93;9.73;;;;;;;;;;4980613;28;20469;-63
2023/05/14 07:13:52;;;;;;;10.95;9.50;;;;;;;;;;4977558;28;20120;-61
2023/05/14 07:16:17;;;;;;;10.68;9.40;;;;;;;;;;4979891;28;20075;-61
2023/05/14 07:18:43;;;;;;;11.45;9.70;;;;;;;;;;4978974;28;20050;-62
2023/05/14 07:21:08;;;;;;;12.15;10.38;;;;;;;;;;4980188;28;20172;-62
2023/05/14 07:23:35;;;;;;;11.98;10.32;;;;;;;;;;4972191;28;20476;-62
2023/05/14 07:26:01;;;;;;;11.00;9.50;;;;;;;;;;4979067;28;20131;-63
2023/05/14 07:28:26;;;;;;;14.25;8.65;;;;;;;;;;4986294;28;20073;-63
2023/05/14 07:30:53;;;;;;;11.35;10.00;;;;;;;;;;4979720;28;20094;-63
2023/05/14 07:33:18;;;;;;;10.63;9.55;;;;;;;;;;4985750;28;20589;-62
2023/05/14 07:35:44;;;;;;;10.02;8.93;;;;;;;;;;4981965;28;20038;-61
2023/05/14 07:38:09;;;;;;;12.30;9.88;;;;;;;;;;4978757;28;20047;-62
2023/05/14 07:40:35;;;;;;;11.45;9.55;;;;;;;;;;4980358;28;20117;-60
2023/05/14 07:43:00;;;;;;;10.82;9.55;;;;;;;;;;4980944;28;20034;-61
2023/05/14 07:45:25;;;;;;;11.13;10.02;;;;;;;;;;4979612;28;20061;-62
2023/05/14 07:47:51;;;;;;;10.27;8.50;;;;;;;;;;4980509;28;20420;-63
2023/05/14 07:50:17;;;;;;;14.00;10.48;;;;;;;;;;4983593;28;20484;-61
2023/05/14 07:52:43;;;;;;;14.85;11.38;;;;;;;;;;4981171;28;20081;-61
2023/05/14 07:55:09;;;;;;;15.73;12.88;;;;;;;;;;4979258;28;20099;-62
2023/05/14 07:57:34;;;;;;;12.60;10.10;;;;;;;;;;4980211;28;20037;-61
2023/05/14 07:59:59;;;;;;;14.93;10.55;;;;;;;;;;4981437;28;20027;-62
2023/05/14 08:02:25;;;;;;;11.88;9.80;;;;;;;;;;4979295;28;20517;-61
2023/05/14 08:04:51;;;;;;;12.40;10.57;;;;;;;;;;4981023;28;20034;-63
2023/05/14 08:07:16;;;;;;;13.32;11.50;;;;;;;;;;4981759;28;20398;-63
2023/05/14 08:09:42;;;;;;;10.93;9.75;;;;;;;;;;4978840;28;20030;-65
2023/05/14 08:12:07;;;;;;;11.82;9.65;;;;;;;;;;4978566;28;20559;-69
2023/05/14 08:14:33;;;;;;;11.93;10.48;;;;;;;;;;4978356;28;20030;-66
2023/05/14 08:16:58;;;;;;;9.63;8.68;;;;;;;;;;4981232;28;20053;-64
2023/05/14 08:19:26;;;;;;;11.00;9.50;;;;;;;;;;4979885;28;20046;-66
2023/05/14 08:21:51;;;;;;;12.07;10.90;;;;;;;;;;4980134;28;20129;-67
2023/05/14 08:24:17;;;;;;;11.20;10.05;;;;;;;;;;4979087;28;20064;-66
2023/05/14 08:26:43;;;;;;;14.77;13.27;;;;;;;;;;4979371;28;20043;-66
2023/05/14 08:29:08;;;;;;;14.75;13.07;;;;;;;;;;4977960;28;20859;-66
2023/05/14 08:31:34;;;;;;;14.40;11.65;;;;;;;;;;4980731;28;20055;-64
2023/05/14 08:34:00;;;;;;;13.32;11.20;;;;;;;;;;4979402;28;20387;-63
2023/05/14 08:36:25;;;;;;;14.15;11.68;;;;;;;;;;4979196;28;20041;-64
2023/05/14 08:38:51;;;;;;;19.42;13.68;;;;;;;;;;4979708;28;20038;-64
2023/05/14 08:41:16;;;;;;;13.57;10.88;;;;;;;;;;4980009;28;20034;-64
2023/05/14 08:43:48;;;;;;;15.20;10.50;;;;;;;;;;4982013;28;20046;-64
2023/05/14 08:46:14;;;;;;;15.77;12.88;;;;;;;;;;4980316;28;20034;-64
2023/05/14 08:48:41;;;;;;;14.20;12.70;;;;;;;;;;4996331;28;20045;-66
2023/05/14 08:51:07;;;;;;;12.57;10.90;;;;;;;;;;4981445;28;20030;-64
2023/05/14 08:53:32;;;;;;;12.45;10.48;;;;;;;;;;4982233;28;20159;-64
2023/05/14 08:56:00;;;;;;;12.25;11.05;;;;;;;;;;4982558;28;20081;-63
2023/05/14 08:58:26;;;;;;;11.25;9.98;;;;;;;;;;4977439;28;20422;-62
2023/05/14 09:00:52;;;;;;;13.13;11.73;;;;;;;;;;4979433;28;20434;-63
2023/05/14 09:03:18;;;;;;;11.70;10.30;;;;;;;;;;4979568;28;20271;-62
2023/05/14 09:05:44;;;;;;;15.77;11.02;;;;;;;;;;4970528;28;20034;-61
2023/05/14 09:08:10;;;;;;;14.15;12.02;;;;;;;;;;4977396;28;20568;-62
2023/05/14 09:10:35;;;;;;;16.27;11.18;;;;;;;;;;4980556;28;20125;-62
2023/05/14 09:13:00;;;;;;;21.55;12.57;;;;;;;;;;4984862;28;20059;-62
2023/05/14 09:15:26;;;;;;;22.00;12.10;;;;;;;;;;4983220;28;20039;-61
2023/05/14 09:17:52;;;;;;;18.15;11.10;;;;;;;;;;4976229;28;20047;-61
2023/05/14 09:20:18;;;;;;;49.63;18.40;;;;;;;;;;4982444;28;20080;-62
2023/05/14 09:22:44;;;;;;;16.35;11.88;;;;;;;;;;4981823;28;20539;-61
2023/05/14 09:25:11;;;;;;;12.05;10.85;;;;;;;;;;4984009;28;20137;-62
2023/05/14 09:27:36;;;;;;;13.45;10.63;;;;;;;;;;4984192;28;20089;-62
2023/05/14 09:30:05;;;;;;;10.43;9.05;;;;;;;;;;4984068;28;20418;-61
2023/05/14 09:32:37;;;;;;;10.98;9.90;;;;;;;;;;4983284;28;20521;-62
2023/05/14 09:35:14;;;;;;;13.75;10.38;;;;;;;;;;4979914;28;20035;-60
2023/05/14 09:37:41;;;;;;;13.70;11.15;;;;;;;;;;4984647;28;20031;-60
2023/05/14 09:40:07;;;;;;;11.57;10.32;;;;;;;;;;4991391;28;20042;-60
2023/05/14 09:42:33;;;;;;;11.18;9.45;;;;;;;;;;4979866;28;20047;-60
2023/05/14 09:44:58;;;;;;;12.93;10.00;;;;;;;;;;4983504;28;20045;-60
2023/05/14 09:47:24;;;;;;;11.90;10.07;;;;;;;;;;4981310;28;20026;-60
2023/05/14 09:49:49;;;;;;;10.52;9.45;;;;;;;;;;4984709;28;20025;-60
2023/05/14 09:52:17;;;;;;;10.40;9.40;;;;;;;;;;4981929;28;20053;-61
2023/05/14 09:54:42;;;;;;;9.35;8.25;;;;;;;;;;4981457;28;20031;-60
2023/05/14 09:57:08;;;;;;;13.48;8.00;;;;;;;;;;4982899;28;20356;-59
2023/05/14 09:59:33;;;;;;;10.32;9.32;;;;;;;;;;4983145;28;20443;-60
2023/05/14 10:01:59;;;;;;;12.43;9.60;;;;;;;;;;4987170;28;20481;-60
2023/05/14 10:04:24;;;;;;;9.88;8.88;;;;;;;;;;4980831;28;20037;-61
2023/05/14 10:06:51;;;;;;;10.48;8.73;;;;;;;;;;4985446;28;20517;-63
2023/05/14 10:09:20;;;;;;;10.05;8.95;;;;;;;;;;4984279;28;20046;-60
2023/05/14 10:11:49;;;;;;;10.38;9.38;;;;;;;;;;4981737;28;20605;-59
2023/05/14 10:14:19;;;;;;;9.18;8.23;;;;;;;;;;4982613;28;20098;-60
2023/05/14 10:16:55;;;;;;;13.90;11.25;;;;;;;;;;4982415;28;20477;-58
2023/05/14 10:19:22;;;;;;;11.77;10.38;;;;;;;;;;4981361;28;20046;-60
2023/05/14 10:21:51;;;;;;;10.80;8.70;;;;;;;;;;4987567;28;20034;-61
2023/05/14 10:24:17;;;;;;;10.90;9.50;;;;;;;;;;4983848;28;20053;-60
2023/05/14 10:26:42;;;;;;;11.48;10.30;;;;;;;;;;4984789;28;20026;-59
2023/05/14 10:29:11;;;;;;;10.30;9.05;;;;;;;;;;4982281;28;20056;-65
2023/05/14 10:31:53;;;;;;;10.38;8.25;;;;;;;;;;4977472;28;20093;-63
2023/05/14 10:34:42;;;;;;;9.73;8.73;;;;;;;;;;4986996;28;20043;-61
2023/05/14 10:37:09;;;;;;;10.93;9.32;;;;;;;;;;4970044;28;20125;-59
2023/05/14 10:39:42;;;;;;;12.18;9.25;;;;;;;;;;4984708;28;20109;-61
2023/05/14 10:42:09;;;;;;;13.57;9.77;;;;;;;;;;4980880;28;20030;-61
2023/05/14 10:44:38;;;;;;;13.65;9.60;;;;;;;;;;4984560;28;20101;-62
2023/05/14 10:47:03;;;;;;;13.82;10.05;;;;;;;;;;4973931;28;20109;-61
2023/05/14 10:49:29;;;;;;;10.60;9.15;;;;;;;;;;4974320;28;20030;-60
2023/05/14 10:51:56;;;;;;;10.07;9.07;;;;;;;;;;4979647;28;20329;-60
2023/05/14 10:54:21;;;;;;;10.15;8.98;;;;;;;;;;4971380;28;20035;-61
2023/05/14 10:56:48;;;;;;;10.20;9.25;;;;;;;;;;4978586;28;20498;-61
2023/05/14 10:59:15;;;;;;;8.88;7.97;;;;;;;;;;4980649;28;20037;-61
2023/05/14 11:01:41;;;;;;;10.30;9.38;;;;;;;;;;4981438;28;20033;-60
2023/05/14 11:04:07;;;;;;;10.25;9.10;;;;;;;;;;4983213;28;20493;-60
2023/05/14 11:06:34;;;;;;;12.35;11.05;;;;;;;;;;4983428;28;20044;-60
2023/05/14 11:09:00;;;;;;;10.55;9.55;;;;;;;;;;4980807;28;20034;-60
2023/05/14 11:11:25;;;;;;;11.48;9.88;;;;;;;;;;4979891;28;20279;-61
2023/05/14 11:13:56;;;;;;;11.20;9.88;;;;;;;;;;4983442;28;20617;-61
2023/05/14 11:16:22;;;;;;;16.02;10.23;;;;;;;;;;4984553;28;20042;-60
2023/05/14 11:18:51;;;;;;;10.52;9.40;;;;;;;;;;4982338;28;20604;-60
2023/05/14 11:21:17;;;;;;;13.68;10.88;;;;;;;;;;4982705;28;20116;-60
2023/05/14 11:23:45;;;;;;;20.25;14.43;;;;;;;;;;4982904;28;20125;-60
2023/05/14 11:26:11;;;;;;;15.18;10.77;;;;;;;;;;4980890;28;20034;-59
2023/05/14 11:28:37;;;;;;;10.00;8.98;;;;;;;;;;4980792;28;20038;-61
2023/05/14 11:31:04;;;;;;;10.70;9.55;;;;;;;;;;4983566;28;20034;-60
2023/05/14 11:33:30;;;;;;;11.57;9.82;;;;;;;;;;4981404;28;20057;-60
2023/05/14 11:35:55;;;;;;;12.10;10.77;;;;;;;;;;4981000;28;20027;-61
2023/05/14 11:38:21;;;;;;;11.13;9.88;;;;;;;;;;4985854;28;20502;-60
2023/05/14 11:40:51;;;;;;;11.05;9.88;;;;;;;;;;4984120;28;20461;-60
2023/05/14 11:43:17;;;;;;;12.02;10.93;;;;;;;;;;4981170;28;20056;-61
2023/05/14 11:45:47;;;;;;;14.52;13.23;;;;;;;;;;4984033;28;20039;-60
2023/05/14 11:48:16;;;;;;;10.63;9.52;;;;;;;;;;4981002;28;20057;-60
2023/05/14 11:50:49;;;;;;;13.00;10.00;;;;;;;;;;4981972;28;20065;-60
2023/05/14 11:53:18;;;;;;;12.07;9.27;;;;;;;;;;4981385;28;20062;-61
2023/05/14 11:55:45;;;;;;;14.35;10.50;;;;;;;;;;4979576;28;20042;-60
2023/05/14 11:58:11;;;;;;;13.48;10.10;;;;;;;;;;4981349;28;20045;-60
2023/05/14 12:00:36;;;;;;;10.57;9.27;;;;;;;;;;4971324;28;20046;-59
2023/05/14 12:03:02;;;;;;;17.88;11.55;;;;;;;;;;4980360;28;20046;-59
2023/05/14 12:05:27;;;;;;;15.85;11.93;;;;;;;;;;4980389;28;20112;-61
2023/05/14 12:07:53;;;;;;;16.17;12.38;;;;;;;;;;4982813;28;20025;-61
2023/05/14 12:10:18;;;;;;;13.48;11.82;;;;;;;;;;4980504;28;20071;-61
2023/05/14 12:12:44;;;;;;;12.50;10.40;;;;;;;;;;4982296;28;20114;-60
2023/05/14 12:15:11;;;;;;;12.80;10.57;;;;;;;;;;4982003;28;20108;-59
2023/05/14 12:17:36;;;;;;;16.05;11.82;;;;;;;;;;4979788;28;20467;-60
2023/05/14 12:20:03;;;;;;;14.70;12.05;;;;;;;;;;4981936;28;20034;-59
2023/05/14 12:22:28;;;;;;;13.18;11.65;;;;;;;;;;4981292;28;20045;-60
2023/05/14 12:24:54;;;;;;;12.02;10.75;;;;;;;;;;4980735;28;20342;-61
2023/05/14 12:27:26;;;;;;;13.25;10.13;;;;;;;;;;4980881;28;20045;-61
2023/05/14 12:30:02;;;;;;;11.15;9.95;;;;;;;;;;4983994;28;20034;-61
2023/05/14 12:32:34;;;;;;;13.25;11.05;;;;;;;;;;4981148;28;20400;-61
2023/05/14 12:35:00;;;;;;;12.68;9.93;;;;;;;;;;4983279;28;20032;-60
2023/05/14 12:37:26;;;;;;;13.05;11.43;;;;;;;;;;4977954;28;20035;-61
2023/05/14 12:39:51;;;;;;;13.85;11.02;;;;;;;;;;4981176;28;20474;-61
2023/05/14 12:42:17;;;;;;;13.30;10.93;;;;;;;;;;4980549;28;20053;-60
2023/05/14 12:44:42;;;;;;;13.25;10.80;;;;;;;;;;4980128;28;20165;-60
2023/05/14 12:47:08;;;;;;;15.40;12.30;;;;;;;;;;4985162;28;20027;-61
2023/05/14 12:49:33;;;;;;;15.63;12.68;;;;;;;;;;4982320;28;20015;-61
2023/05/14 12:52:01;;;;;;;17.23;13.68;;;;;;;;;;4985200;28;20038;-61
2023/05/14 12:54:26;;;;;;;14.90;12.05;;;;;;;;;;4983869;28;20367;-63
2023/05/14 12:56:52;;;;;;;11.77;10.57;;;;;;;;;;4985802;28;20043;-62
2023/05/14 12:59:17;;;;;;;13.55;11.35;;;;;;;;;;4982752;28;20162;-61
2023/05/14 13:01:43;;;;;;;9.68;8.63;;;;;;;;;;4974855;28;20038;-61
2023/05/14 13:04:11;;;;;;;10.23;9.10;;;;;;;;;;4984313;28;20097;-61
2023/05/14 13:06:37;;;;;;;10.60;9.50;;;;;;;;;;4985237;28;20105;-62
2023/05/14 13:09:02;;;;;;;12.68;8.55;;;;;;;;;;4984672;28;20382;-61
2023/05/14 13:11:30;;;;;;;9.70;8.70;;;;;;;;;;4984816;28;20054;-62
2023/05/14 13:13:56;;;;;;;11.48;9.10;;;;;;;;;;4984955;28;20038;-61
2023/05/14 13:16:22;;;;;;;9.65;8.30;;;;;;;;;;4986256;28;20540;-61
2023/05/14 13:18:47;;;;;;;11.10;9.38;;;;;;;;;;4998818;28;20081;-61
2023/05/14 13:21:13;;;;;;;9.77;8.15;;;;;;;;;;4986109;28;20078;-61
2023/05/14 13:23:38;;;;;;;9.93;8.80;;;;;;;;;;4982937;28;20195;-61
2023/05/14 13:26:03;;;;;;;11.90;9.23;;;;;;;;;;4979172;28;20414;-60
2023/05/14 13:28:29;;;;;;;8.85;7.88;;;;;;;;;;4984392;28;20053;-61
2023/05/14 13:31:04;;;;;;;11.23;9.55;;;;;;;;;;4985727;28;20049;-62
2023/05/14 13:33:30;;;;;;;11.68;9.90;;;;;;;;;;4986289;28;20066;-61
2023/05/14 13:35:55;;;;;;;9.55;8.63;;;;;;;;;;4987075;28;20098;-61
2023/05/14 13:38:20;;;;;;;10.27;9.18;;;;;;;;;;4982360;28;20042;-61
2023/05/14 13:40:46;;;;;;;10.65;9.65;;;;;;;;;;4983907;28;20371;-61
2023/05/14 13:43:12;;;;;;;10.23;9.25;;;;;;;;;;4984725;28;20053;-60
2023/05/14 13:45:37;;;;;;;11.75;10.45;;;;;;;;;;4981650;28;20062;-60
2023/05/14 13:48:02;;;;;;;12.73;11.43;;;;;;;;;;4983164;28;20096;-62
2023/05/14 13:50:28;;;;;;;15.13;13.18;;;;;;;;;;4982153;28;20038;-60
2023/05/14 13:52:53;;;;;;;15.02;11.40;;;;;;;;;;4984533;28;20071;-61
2023/05/14 13:55:19;;;;;;;15.18;12.38;;;;;;;;;;4984079;28;20038;-61
2023/05/14 13:57:44;;;;;;;15.63;12.00;;;;;;;;;;4982769;28;20049;-60
2023/05/14 14:00:10;;;;;;;13.45;12.15;;;;;;;;;;4983611;28;20033;-61
2023/05/14 14:02:35;;;;;;;13.05;11.75;;;;;;;;;;4986063;28;20053;-62
2023/05/14 14:05:01;;;;;;;17.88;11.82;;;;;;;;;;4984478;28;20160;-60
2023/05/14 14:07:29;;;;;;;13.30;11.90;;;;;;;;;;4971312;28;20116;-59
2023/05/14 14:09:55;;;;;;;14.10;12.65;;;;;;;;;;4982328;28;20050;-59
2023/05/14 14:12:20;;;;;;;14.57;11.95;;;;;;;;;;4983307;28;20034;-60
2023/05/14 14:14:46;;;;;;;16.58;13.43;;;;;;;;;;4983259;28;20047;-59